Time,TemperatureF,DewpointF,PressureIn,WindDirection,WindDirectionDegrees,WindSpeedMPH,WindSpeedGustMPH,Humidity,HourlyPrecipIn,Conditions,Clouds,dailyrainin,SoftwareType,DateUTC
2013-08-18 00:14:00,76.3,60.0,29.92,NE,53,0.0,-999.0,57,-99.99,,,0.00,weatherlink.com 1.10,2013-08-18 05:14:00,
2013-08-18 00:29:00,75.4,59.0,29.92,NE,53,0.0,-999.0,58,-99.99,,,0.00,weatherlink.com 1.10,2013-08-18 05:29:00,
2013-08-18 00:44:00,74.8,60.0,29.92,NE,53,0.0,-999.0,60,-99.99,,,0.00,weatherlink.com 1.10,2013-08-18 05:44:00,
2013-08-18 00:59:00,74.2,59.0,29.93,NE,53,0.0,-999.0,60,-99.99,,,0.00,weatherlink.com 1.10,2013-08-18 05:59:00,
2013-08-18 01:15:00,73.6,60.0,29.93,NE,53,0.0,-999.0,62,-99.99,,,0.00,weatherlink.com 1.10,2013-08-18 06:15:00,
2013-08-18 01:30:00,72.9,60.0,29.93,NE,53,0.0,-999.0,64,-99.99,,,0.00,weatherlink.com 1.10,2013-08-18 06:30:00,
2013-08-18 01:45:00,72.6,59.0,29.93,NE,53,0.0,-999.0,63,-99.99,,,0.00,weatherlink.com 1.10,2013-08-18 06:45:00,
2013-08-18 02:00:00,72.7,59.0,29.92,NE,53,0.0,-999.0,63,-99.99,,,0.00,weatherlink.com 1.10,2013-08-18 07:00:00,
2013-08-18 02:15:00,72.6,59.0,29.92,NE,53,0.0,-999.0,63,-99.99,,,0.00,weatherlink.com 1.10,2013-08-18 07:15:00,
2013-08-18 02:30:00,72.4,59.0,29.92,NE,53,0.0,-999.0,64,-99.99,,,0.00,weatherlink.com 1.10,2013-08-18 07:30:00,
2013-08-18 02:45:00,71.9,59.0,29.92,NE,53,0.0,-999.0,65,-99.99,,,0.00,weatherlink.com 1.10,2013-08-18 07:45:00,
2013-08-18 03:00:00,71.3,59.0,29.92,NE,53,0.0,-999.0,65,-99.99,,,0.00,weatherlink.com 1.10,2013-08-18 08:00:00,
2013-08-18 03:15:00,70.6,59.0,29.91,NE,53,0.0,-999.0,67,-99.99,,,0.00,weatherlink.com 1.10,2013-08-18 08:15:00,
2013-08-18 03:30:00,70.1,59.0,29.91,NE,53,0.0,-999.0,68,-99.99,,,0.00,weatherlink.com 1.10,2013-08-18 08:30:00,
2013-08-18 03:45:00,69.6,59.0,29.91,NE,53,0.0,-999.0,69,-99.99,,,0.00,weatherlink.com 1.10,2013-08-18 08:45:00,
2013-08-18 04:01:00,69.1,59.0,29.91,NE,53,0.0,-999.0,70,-99.99,,,0.00,weatherlink.com 1.10,2013-08-18 09:01:00,
2013-08-18 04:16:00,68.7,59.0,29.91,NE,53,0.0,-999.0,70,-99.99,,,0.00,weatherlink.com 1.10,2013-08-18 09:16:00,
2013-08-18 04:31:00,68.3,59.0,29.91,NE,53,0.0,-999.0,71,-99.99,,,0.00,weatherlink.com 1.10,2013-08-18 09:31:00,
2013-08-18 04:46:00,68.0,59.0,29.91,NE,53,0.0,-999.0,72,-99.99,,,0.00,weatherlink.com 1.10,2013-08-18 09:46:00,
2013-08-18 05:01:00,67.7,59.0,29.91,NE,53,0.0,-999.0,73,-99.99,,,0.00,weatherlink.com 1.10,2013-08-18 10:01:00,
2013-08-18 05:16:00,67.4,58.0,29.91,NE,53,0.0,-999.0,73,-99.99,,,0.00,weatherlink.com 1.10,2013-08-18 10:16:00,
2013-08-18 05:31:00,67.1,59.0,29.92,NE,53,0.0,-999.0,74,-99.99,,,0.00,weatherlink.com 1.10,2013-08-18 10:31:00,
2013-08-18 05:46:00,66.8,58.0,29.92,NE,53,0.0,-999.0,74,-99.99,,,0.00,weatherlink.com 1.10,2013-08-18 10:46:00,
2013-08-18 06:01:00,66.6,58.0,29.92,NE,53,0.0,-999.0,75,-99.99,,,0.00,weatherlink.com 1.10,2013-08-18 11:01:00,
2013-08-18 06:16:00,66.6,58.0,29.92,NE,53,0.0,-999.0,75,-99.99,,,0.00,weatherlink.com 1.10,2013-08-18 11:16:00,
2013-08-18 06:31:00,66.5,58.0,29.92,NE,53,0.0,-999.0,75,-99.99,,,0.00,weatherlink.com 1.10,2013-08-18 11:31:00,
2013-08-18 06:47:00,66.3,59.0,29.93,NE,53,0.0,-999.0,76,-99.99,,,0.00,weatherlink.com 1.10,2013-08-18 11:47:00,
2013-08-18 07:02:00,66.1,58.0,29.93,NE,53,0.0,-999.0,76,-99.99,,,0.00,weatherlink.com 1.10,2013-08-18 12:02:00,
2013-08-18 07:17:00,66.0,59.0,29.94,NE,53,0.0,-999.0,77,-99.99,,,0.00,weatherlink.com 1.10,2013-08-18 12:17:00,
2013-08-18 07:32:00,65.9,59.0,29.94,NE,53,0.0,-999.0,78,-99.99,,,0.00,weatherlink.com 1.10,2013-08-18 12:32:00,
2013-08-18 07:47:00,65.9,59.0,29.95,NE,53,0.0,-999.0,78,-99.99,,,0.00,weatherlink.com 1.10,2013-08-18 12:47:00,
2013-08-18 08:02:00,66.2,60.0,29.95,NE,53,0.0,-999.0,79,-99.99,,,0.00,weatherlink.com 1.10,2013-08-18 13:02:00,
2013-08-18 08:17:00,67.0,61.0,29.95,NE,53,0.0,-999.0,80,-99.99,,,0.00,weatherlink.com 1.10,2013-08-18 13:17:00,
2013-08-18 08:32:00,68.2,61.0,29.96,NE,53,0.0,-999.0,79,-99.99,,,0.00,weatherlink.com 1.10,2013-08-18 13:32:00,
2013-08-18 08:47:00,70.3,62.0,29.96,NE,53,0.0,-999.0,76,-99.99,,,0.00,weatherlink.com 1.10,2013-08-18 13:47:00,
2013-08-18 09:02:00,73.2,64.0,29.96,NE,53,0.0,-999.0,74,-99.99,,,0.00,weatherlink.com 1.10,2013-08-18 14:02:00,
2013-08-18 09:17:00,75.5,66.0,29.97,NE,53,0.0,-999.0,73,-99.99,,,0.00,weatherlink.com 1.10,2013-08-18 14:17:00,
2013-08-18 09:33:00,78.2,67.0,29.97,NE,53,0.0,-999.0,69,-99.99,,,0.00,weatherlink.com 1.10,2013-08-18 14:33:00,
2013-08-18 09:48:00,80.3,68.0,29.97,NE,54,0.0,-999.0,66,-99.99,,,0.00,weatherlink.com 1.10,2013-08-18 14:48:00,
2013-08-18 10:03:00,82.6,69.0,29.97,NE,54,0.0,-999.0,63,-99.99,,,0.00,weatherlink.com 1.10,2013-08-18 15:03:00,
2013-08-18 10:18:00,84.0,69.0,29.97,NE,54,0.0,-999.0,61,-99.99,,,0.00,weatherlink.com 1.10,2013-08-18 15:18:00,
2013-08-18 10:33:00,85.3,69.0,29.97,East,98,0.0,-999.0,59,-99.99,,,0.00,weatherlink.com 1.10,2013-08-18 15:33:00,
2013-08-18 10:48:00,86.6,70.0,29.97,SW,234,0.0,-999.0,58,-99.99,,,0.00,weatherlink.com 1.10,2013-08-18 15:48:00,
2013-08-18 11:03:00,88.2,70.0,29.97,WNW,296,0.0,-999.0,55,-99.99,,,0.00,weatherlink.com 1.10,2013-08-18 16:03:00,
2013-08-18 11:18:00,88.5,69.0,29.97,WSW,250,0.0,-999.0,52,-99.99,,,0.00,weatherlink.com 1.10,2013-08-18 16:18:00,
2013-08-18 11:33:00,88.8,68.0,29.97,SSW,193,0.0,-999.0,51,-99.99,,,0.00,weatherlink.com 1.10,2013-08-18 16:33:00,
2013-08-18 11:49:00,88.3,68.0,29.97,South,186,1.0,-999.0,52,-99.99,,,0.00,weatherlink.com 1.10,2013-08-18 16:49:00,
2013-08-18 12:04:00,89.3,69.0,29.97,NE,35,0.0,-999.0,51,-99.99,,,0.00,weatherlink.com 1.10,2013-08-18 17:04:00,
2013-08-18 12:19:00,91.2,68.0,29.96,WNW,290,0.0,-999.0,46,-99.99,,,0.00,weatherlink.com 1.10,2013-08-18 17:19:00,
2013-08-18 12:34:00,90.8,67.0,29.96,WSW,257,0.0,-999.0,46,-99.99,,,0.00,weatherlink.com 1.10,2013-08-18 17:34:00,
2013-08-18 12:49:00,90.5,66.0,29.96,West,259,0.0,-999.0,45,-99.99,,,0.00,weatherlink.com 1.10,2013-08-18 17:49:00,
2013-08-18 13:04:00,90.8,67.0,29.95,WNW,289,0.0,-999.0,45,-99.99,,,0.00,weatherlink.com 1.10,2013-08-18 18:04:00,
2013-08-18 13:19:00,90.9,66.0,29.95,WNW,289,0.0,-999.0,44,-99.99,,,0.00,weatherlink.com 1.10,2013-08-18 18:19:00,
2013-08-18 13:34:00,92.2,67.0,29.95,WNW,289,0.0,-999.0,43,-99.99,,,0.00,weatherlink.com 1.10,2013-08-18 18:34:00,
2013-08-18 13:49:00,91.3,65.0,29.95,ENE,65,0.0,-999.0,42,-99.99,,,0.00,weatherlink.com 1.10,2013-08-18 18:49:00,
2013-08-18 14:04:00,91.6,65.0,29.94,East,83,1.0,-999.0,42,-99.99,,,0.00,weatherlink.com 1.10,2013-08-18 19:04:00,
2013-08-18 14:19:00,93.3,65.0,29.94,ENE,68,0.0,-999.0,39,-99.99,,,0.00,weatherlink.com 1.10,2013-08-18 19:19:00,
2013-08-18 14:35:00,95.0,65.0,29.94,East,80,0.0,-999.0,37,-99.99,,,0.00,weatherlink.com 1.10,2013-08-18 19:35:00,
2013-08-18 14:50:00,94.1,64.0,29.93,NE,41,0.0,-999.0,37,-99.99,,,0.00,weatherlink.com 1.10,2013-08-18 19:50:00,
2013-08-18 15:05:00,96.1,64.0,29.92,ENE,61,0.0,-999.0,35,-99.99,,,0.00,weatherlink.com 1.10,2013-08-18 20:05:00,
2013-08-18 15:20:00,96.2,64.0,29.92,NE,56,0.0,-999.0,35,-99.99,,,0.00,weatherlink.com 1.10,2013-08-18 20:20:00,
2013-08-18 15:35:00,95.3,64.0,29.91,ESE,109,1.0,-999.0,35,-99.99,,,0.00,weatherlink.com 1.10,2013-08-18 20:35:00,
2013-08-18 15:50:00,94.7,63.0,29.91,North,5,0.0,-999.0,35,-99.99,,,0.00,weatherlink.com 1.10,2013-08-18 20:50:00,
2013-08-18 16:05:00,95.8,63.0,29.91,East,81,0.0,-999.0,34,-99.99,,,0.00,weatherlink.com 1.10,2013-08-18 21:05:00,
2013-08-18 16:20:00,96.5,62.0,29.90,NE,47,0.0,-999.0,32,-99.99,,,0.00,weatherlink.com 1.10,2013-08-18 21:20:00,
2013-08-18 16:35:00,96.5,61.0,29.90,WNW,303,0.0,-999.0,31,-99.99,,,0.00,weatherlink.com 1.10,2013-08-18 21:35:00,
2013-08-18 16:50:00,96.0,63.0,29.90,East,83,3.0,-999.0,33,-99.99,,,0.00,weatherlink.com 1.10,2013-08-18 21:50:00,
2013-08-18 17:05:00,96.0,62.0,29.89,SE,129,2.0,-999.0,32,-99.99,,,0.00,weatherlink.com 1.10,2013-08-18 22:05:00,
2013-08-18 17:21:00,96.0,63.0,29.89,WNW,291,0.0,-999.0,33,-99.99,,,0.00,weatherlink.com 1.10,2013-08-18 22:21:00,
2013-08-18 17:36:00,96.2,63.0,29.89,ENE,66,0.0,-999.0,33,-99.99,,,0.00,weatherlink.com 1.10,2013-08-18 22:36:00,
2013-08-18 17:51:00,95.3,63.0,29.88,ESE,117,1.0,-999.0,34,-99.99,,,0.00,weatherlink.com 1.10,2013-08-18 22:51:00,
2013-08-18 18:06:00,94.6,63.0,29.88,ESE,104,0.0,-999.0,35,-99.99,,,0.00,weatherlink.com 1.10,2013-08-18 23:06:00,
2013-08-18 18:21:00,94.2,61.0,29.88,NE,49,0.0,-999.0,33,-99.99,,,0.00,weatherlink.com 1.10,2013-08-18 23:21:00,
2013-08-18 18:36:00,93.9,62.0,29.88,NE,51,0.0,-999.0,35,-99.99,,,0.00,weatherlink.com 1.10,2013-08-18 23:36:00,
2013-08-18 18:51:00,93.3,61.0,29.88,NE,51,0.0,-999.0,34,-99.99,,,0.00,weatherlink.com 1.10,2013-08-18 23:51:00,
2013-08-18 19:06:00,92.6,61.0,29.88,ENE,77,0.0,-999.0,35,-99.99,,,0.00,weatherlink.com 1.10,2013-08-19 00:06:00,
2013-08-18 19:21:00,92.1,61.0,29.88,ENE,76,0.0,-999.0,35,-99.99,,,0.00,weatherlink.com 1.10,2013-08-19 00:21:00,
2013-08-18 19:36:00,91.5,62.0,29.88,East,88,0.0,-999.0,37,-99.99,,,0.00,weatherlink.com 1.10,2013-08-19 00:36:00,
2013-08-18 19:51:00,90.6,61.0,29.88,East,88,0.0,-999.0,37,-99.99,,,0.00,weatherlink.com 1.10,2013-08-19 00:51:00,
2013-08-18 20:06:00,89.5,61.0,29.88,East,88,0.0,-999.0,38,-99.99,,,0.00,weatherlink.com 1.10,2013-08-19 01:06:00,
2013-08-18 20:21:00,88.4,61.0,29.88,East,88,0.0,-999.0,40,-99.99,,,0.00,weatherlink.com 1.10,2013-08-19 01:21:00,
2013-08-18 20:37:00,87.0,61.0,29.88,East,88,0.0,-999.0,41,-99.99,,,0.00,weatherlink.com 1.10,2013-08-19 01:37:00,
2013-08-18 20:52:00,85.4,60.0,29.88,East,88,0.0,-999.0,43,-99.99,,,0.00,weatherlink.com 1.10,2013-08-19 01:52:00,
2013-08-18 21:07:00,83.9,61.0,29.89,East,88,0.0,-999.0,46,-99.99,,,0.00,weatherlink.com 1.10,2013-08-19 02:07:00,
2013-08-18 21:22:00,82.7,60.0,29.89,East,88,0.0,-999.0,47,-99.99,,,0.00,weatherlink.com 1.10,2013-08-19 02:22:00,
2013-08-18 21:37:00,81.4,61.0,29.89,East,88,0.0,-999.0,50,-99.99,,,0.00,weatherlink.com 1.10,2013-08-19 02:37:00,
2013-08-18 21:52:00,80.5,61.0,29.90,East,88,0.0,-999.0,51,-99.99,,,0.00,weatherlink.com 1.10,2013-08-19 02:52:00,
2013-08-18 22:07:00,79.6,61.0,29.90,East,88,0.0,-999.0,53,-99.99,,,0.00,weatherlink.com 1.10,2013-08-19 03:07:00,
2013-08-18 22:22:00,78.8,61.0,29.90,East,88,0.0,-999.0,54,-99.99,,,0.00,weatherlink.com 1.10,2013-08-19 03:22:00,
2013-08-18 22:37:00,77.9,61.0,29.91,East,88,0.0,-999.0,56,-99.99,,,0.00,weatherlink.com 1.10,2013-08-19 03:37:00,
2013-08-18 22:52:00,77.1,61.0,29.92,East,88,0.0,-999.0,57,-99.99,,,0.00,weatherlink.com 1.10,2013-08-19 03:52:00,
2013-08-18 23:07:00,76.6,61.0,29.92,East,88,0.0,-999.0,58,-99.99,,,0.00,weatherlink.com 1.10,2013-08-19 04:07:00,
2013-08-18 23:22:00,76.2,61.0,29.93,East,88,0.0,-999.0,59,-99.99,,,0.00,weatherlink.com 1.10,2013-08-19 04:22:00,
2013-08-18 23:37:00,75.7,61.0,29.93,East,88,0.0,-999.0,60,-99.99,,,0.00,weatherlink.com 1.10,2013-08-19 04:37:00,
2013-08-18 23:53:00,75.5,61.0,29.92,East,88,0.0,-999.0,60,-99.99,,,0.00,weatherlink.com 1.10,2013-08-19 04:53:00,